sensor_id;sensor_type;location;lat;lon;timestamp;temperature;humidity
37844;DHT22;63793;57.632;18.292;2023-03-25T00:00:09;6.80;99.90
37844;DHT22;63793;57.632;18.292;2023-03-25T00:02:47;6.80;99.90
37844;DHT22;63793;57.632;18.292;2023-03-25T00:05:17;6.70;99.90
37844;DHT22;63793;57.632;18.292;2023-03-25T00:07:45;6.70;99.90
37844;DHT22;63793;57.632;18.292;2023-03-25T00:10:14;6.70;99.90
37844;DHT22;63793;57.632;18.292;2023-03-25T00:12:41;6.70;99.90
37844;DHT22;63793;57.632;18.292;2023-03-25T00:15:10;6.70;99.90
37844;DHT22;63793;57.632;18.292;2023-03-25T00:17:37;6.70;99.90
37844;DHT22;63793;57.632;18.292;2023-03-25T00:20:06;6.70;99.90
37844;DHT22;63793;57.632;18.292;2023-03-25T00:22:36;6.70;99.90
37844;DHT22;63793;57.632;18.292;2023-03-25T00:25:08;6.70;99.90
37844;DHT22;63793;57.632;18.292;2023-03-25T00:27:36;6.70;99.90
37844;DHT22;63793;57.632;18.292;2023-03-25T00:30:04;6.70;99.90
37844;DHT22;63793;57.632;18.292;2023-03-25T00:32:31;6.70;99.90
37844;DHT22;63793;57.632;18.292;2023-03-25T00:34:58;6.70;99.90
37844;DHT22;63793;57.632;18.292;2023-03-25T00:37:25;6.70;99.90
37844;DHT22;63793;57.632;18.292;2023-03-25T00:39:53;6.70;99.90
37844;DHT22;63793;57.632;18.292;2023-03-25T00:42:19;6.60;99.90
37844;DHT22;63793;57.632;18.292;2023-03-25T00:44:52;6.50;99.90
37844;DHT22;63793;57.632;18.292;2023-03-25T00:47:21;6.50;99.90
37844;DHT22;63793;57.632;18.292;2023-03-25T00:49:48;6.50;99.90
37844;DHT22;63793;57.632;18.292;2023-03-25T00:52:15;6.50;99.90
37844;DHT22;63793;57.632;18.292;2023-03-25T00:54:44;6.50;99.90
37844;DHT22;63793;57.632;18.292;2023-03-25T00:57:11;6.50;99.90
37844;DHT22;63793;57.632;18.292;2023-03-25T00:59:38;6.50;99.90
37844;DHT22;63793;57.632;18.292;2023-03-25T01:02:05;6.50;99.90
37844;DHT22;63793;57.632;18.292;2023-03-25T01:04:34;6.50;99.90
37844;DHT22;63793;57.632;18.292;2023-03-25T01:07:08;6.50;99.90
37844;DHT22;63793;57.632;18.292;2023-03-25T01:09:36;6.60;99.90
37844;DHT22;63793;57.632;18.292;2023-03-25T01:12:04;6.60;99.90
37844;DHT22;63793;57.632;18.292;2023-03-25T01:14:31;6.60;99.90
37844;DHT22;63793;57.632;18.292;2023-03-25T01:16:59;6.60;99.90
37844;DHT22;63793;57.632;18.292;2023-03-25T01:19:28;6.60;99.90
37844;DHT22;63793;57.632;18.292;2023-03-25T01:21:55;6.60;99.90
37844;DHT22;63793;57.632;18.292;2023-03-25T01:24:22;6.60;99.90
37844;DHT22;63793;57.632;18.292;2023-03-25T01:26:49;6.60;99.90
37844;DHT22;63793;57.632;18.292;2023-03-25T01:29:18;6.50;99.90
37844;DHT22;63793;57.632;18.292;2023-03-25T01:31:46;6.60;99.90
37844;DHT22;63793;57.632;18.292;2023-03-25T01:34:14;6.60;99.90
37844;DHT22;63793;57.632;18.292;2023-03-25T01:36:41;6.60;99.90
37844;DHT22;63793;57.632;18.292;2023-03-25T01:39:14;6.60;99.90
37844;DHT22;63793;57.632;18.292;2023-03-25T01:41:43;6.60;99.90
37844;DHT22;63793;57.632;18.292;2023-03-25T01:46:49;6.50;99.90
37844;DHT22;63793;57.632;18.292;2023-03-25T01:49:30;6.50;99.90
37844;DHT22;63793;57.632;18.292;2023-03-25T01:52:01;6.50;99.90
37844;DHT22;63793;57.632;18.292;2023-03-25T01:54:29;6.50;99.90
37844;DHT22;63793;57.632;18.292;2023-03-25T01:56:56;6.40;99.90
37844;DHT22;63793;57.632;18.292;2023-03-25T01:59:26;6.40;99.90
37844;DHT22;63793;57.632;18.292;2023-03-25T02:01:55;6.40;99.90
37844;DHT22;63793;57.632;18.292;2023-03-25T02:04:59;6.30;99.90
37844;DHT22;63793;57.632;18.292;2023-03-25T02:07:30;6.30;99.90
37844;DHT22;63793;57.632;18.292;2023-03-25T02:10:00;6.20;99.90
37844;DHT22;63793;57.632;18.292;2023-03-25T02:12:28;6.20;99.90
37844;DHT22;63793;57.632;18.292;2023-03-25T02:14:55;6.20;99.90
37844;DHT22;63793;57.632;18.292;2023-03-25T02:22:53;6.00;99.90
37844;DHT22;63793;57.632;18.292;2023-03-25T02:31:48;6.10;99.90
37844;DHT22;63793;57.632;18.292;2023-03-25T02:34:44;6.10;99.90
37844;DHT22;63793;57.632;18.292;2023-03-25T02:37:28;6.20;99.90
37844;DHT22;63793;57.632;18.292;2023-03-25T02:40:08;6.20;99.90
37844;DHT22;63793;57.632;18.292;2023-03-25T02:42:57;6.20;99.90
37844;DHT22;63793;57.632;18.292;2023-03-25T02:45:31;6.30;99.90
37844;DHT22;63793;57.632;18.292;2023-03-25T02:48:04;6.30;99.90
37844;DHT22;63793;57.632;18.292;2023-03-25T02:50:39;6.30;99.90
37844;DHT22;63793;57.632;18.292;2023-03-25T02:53:10;6.30;99.90
37844;DHT22;63793;57.632;18.292;2023-03-25T02:55:40;6.30;99.90
37844;DHT22;63793;57.632;18.292;2023-03-25T02:58:10;6.30;99.90
37844;DHT22;63793;57.632;18.292;2023-03-25T03:00:39;6.30;99.90
37844;DHT22;63793;57.632;18.292;2023-03-25T03:03:07;6.30;99.90
37844;DHT22;63793;57.632;18.292;2023-03-25T03:05:38;6.30;99.90
37844;DHT22;63793;57.632;18.292;2023-03-25T03:25:05;6.30;99.90
37844;DHT22;63793;57.632;18.292;2023-03-25T03:27:42;6.40;99.90
37844;DHT22;63793;57.632;18.292;2023-03-25T03:32:53;6.50;99.90
37844;DHT22;63793;57.632;18.292;2023-03-25T03:35:27;6.60;99.90
37844;DHT22;63793;57.632;18.292;2023-03-25T03:38:00;6.60;99.90
37844;DHT22;63793;57.632;18.292;2023-03-25T03:40:30;6.60;99.90
37844;DHT22;63793;57.632;18.292;2023-03-25T03:43:23;6.70;99.90
37844;DHT22;63793;57.632;18.292;2023-03-25T03:45:57;6.80;99.90
37844;DHT22;63793;57.632;18.292;2023-03-25T03:48:35;6.80;99.90
37844;DHT22;63793;57.632;18.292;2023-03-25T03:51:13;6.90;99.90
37844;DHT22;63793;57.632;18.292;2023-03-25T03:54:06;6.90;99.90
37844;DHT22;63793;57.632;18.292;2023-03-25T03:56:37;7.00;99.90
37844;DHT22;63793;57.632;18.292;2023-03-25T04:01:59;6.90;99.90
37844;DHT22;63793;57.632;18.292;2023-03-25T04:04:27;6.80;99.90
37844;DHT22;63793;57.632;18.292;2023-03-25T04:07:16;6.80;99.90
37844;DHT22;63793;57.632;18.292;2023-03-25T04:10:10;6.80;99.90
37844;DHT22;63793;57.632;18.292;2023-03-25T04:12:44;6.80;99.90
37844;DHT22;63793;57.632;18.292;2023-03-25T04:15:13;6.90;99.90
37844;DHT22;63793;57.632;18.292;2023-03-25T04:17:41;7.00;99.90
37844;DHT22;63793;57.632;18.292;2023-03-25T04:20:13;7.00;99.90
37844;DHT22;63793;57.632;18.292;2023-03-25T04:22:40;7.00;99.90
37844;DHT22;63793;57.632;18.292;2023-03-25T04:25:12;7.00;99.90
37844;DHT22;63793;57.632;18.292;2023-03-25T04:27:39;7.00;99.90
37844;DHT22;63793;57.632;18.292;2023-03-25T04:30:07;7.00;99.90
37844;DHT22;63793;57.632;18.292;2023-03-25T04:32:34;7.00;99.90
37844;DHT22;63793;57.632;18.292;2023-03-25T04:35:01;7.00;99.90
37844;DHT22;63793;57.632;18.292;2023-03-25T04:37:29;7.00;99.90
37844;DHT22;63793;57.632;18.292;2023-03-25T04:39:59;7.00;99.90
37844;DHT22;63793;57.632;18.292;2023-03-25T04:42:26;6.90;99.90
37844;DHT22;63793;57.632;18.292;2023-03-25T04:44:58;6.90;99.90
37844;DHT22;63793;57.632;18.292;2023-03-25T04:47:26;6.90;99.90
37844;DHT22;63793;57.632;18.292;2023-03-25T04:49:53;6.90;99.90
37844;DHT22;63793;57.632;18.292;2023-03-25T04:52:20;6.80;99.90
37844;DHT22;63793;57.632;18.292;2023-03-25T04:54:47;6.80;99.90
37844;DHT22;63793;57.632;18.292;2023-03-25T04:57:14;6.80;99.90
37844;DHT22;63793;57.632;18.292;2023-03-25T04:59:41;6.80;99.90
37844;DHT22;63793;57.632;18.292;2023-03-25T05:02:09;6.80;99.90
37844;DHT22;63793;57.632;18.292;2023-03-25T05:04:40;6.90;99.90
37844;DHT22;63793;57.632;18.292;2023-03-25T05:07:08;6.90;99.90
37844;DHT22;63793;57.632;18.292;2023-03-25T05:09:35;6.90;99.90
37844;DHT22;63793;57.632;18.292;2023-03-25T05:12:02;6.90;99.90
37844;DHT22;63793;57.632;18.292;2023-03-25T05:14:29;7.00;99.90
37844;DHT22;63793;57.632;18.292;2023-03-25T05:16:56;6.90;99.90
37844;DHT22;63793;57.632;18.292;2023-03-25T05:19:25;6.90;99.90
37844;DHT22;63793;57.632;18.292;2023-03-25T05:21:53;7.00;99.90
37844;DHT22;63793;57.632;18.292;2023-03-25T05:24:21;7.00;99.90
37844;DHT22;63793;57.632;18.292;2023-03-25T05:26:48;7.00;99.90
37844;DHT22;63793;57.632;18.292;2023-03-25T05:29:15;7.00;99.90
37844;DHT22;63793;57.632;18.292;2023-03-25T05:31:44;6.90;99.90
37844;DHT22;63793;57.632;18.292;2023-03-25T05:34:12;6.90;99.90
37844;DHT22;63793;57.632;18.292;2023-03-25T05:36:40;6.90;99.90
37844;DHT22;63793;57.632;18.292;2023-03-25T05:39:07;6.80;99.90
37844;DHT22;63793;57.632;18.292;2023-03-25T05:41:34;6.80;99.90
37844;DHT22;63793;57.632;18.292;2023-03-25T05:44:06;6.80;99.90
37844;DHT22;63793;57.632;18.292;2023-03-25T05:46:33;6.80;99.90
37844;DHT22;63793;57.632;18.292;2023-03-25T05:49:00;6.80;99.90
37844;DHT22;63793;57.632;18.292;2023-03-25T05:51:29;6.70;99.90
37844;DHT22;63793;57.632;18.292;2023-03-25T05:53:59;6.70;99.90
37844;DHT22;63793;57.632;18.292;2023-03-25T05:56:28;6.70;99.90
37844;DHT22;63793;57.632;18.292;2023-03-25T05:58:55;6.70;99.90
37844;DHT22;63793;57.632;18.292;2023-03-25T06:01:23;6.70;99.90
37844;DHT22;63793;57.632;18.292;2023-03-25T06:04:00;6.70;99.90
37844;DHT22;63793;57.632;18.292;2023-03-25T06:06:29;6.80;99.90
37844;DHT22;63793;57.632;18.292;2023-03-25T06:08:58;6.80;99.90
37844;DHT22;63793;57.632;18.292;2023-03-25T06:11:25;6.90;99.90
37844;DHT22;63793;57.632;18.292;2023-03-25T06:13:51;6.90;99.90
37844;DHT22;63793;57.632;18.292;2023-03-25T06:16:23;6.90;99.90
37844;DHT22;63793;57.632;18.292;2023-03-25T06:18:56;7.00;99.90
37844;DHT22;63793;57.632;18.292;2023-03-25T06:21:31;7.00;99.90
37844;DHT22;63793;57.632;18.292;2023-03-25T06:23:59;7.00;99.90
37844;DHT22;63793;57.632;18.292;2023-03-25T06:26:27;6.90;99.90
37844;DHT22;63793;57.632;18.292;2023-03-25T06:28:54;7.00;99.90
37844;DHT22;63793;57.632;18.292;2023-03-25T06:31:23;6.90;99.90
37844;DHT22;63793;57.632;18.292;2023-03-25T06:33:54;7.00;99.90
37844;DHT22;63793;57.632;18.292;2023-03-25T06:36:22;7.00;99.90
37844;DHT22;63793;57.632;18.292;2023-03-25T06:38:51;7.00;99.90
37844;DHT22;63793;57.632;18.292;2023-03-25T06:41:20;7.00;99.90
37844;DHT22;63793;57.632;18.292;2023-03-25T06:43:55;7.00;99.90
37844;DHT22;63793;57.632;18.292;2023-03-25T06:46:28;7.10;99.90
37844;DHT22;63793;57.632;18.292;2023-03-25T06:49:15;7.20;99.90
37844;DHT22;63793;57.632;18.292;2023-03-25T06:51:42;7.30;99.90
37844;DHT22;63793;57.632;18.292;2023-03-25T06:54:09;7.40;99.90
37844;DHT22;63793;57.632;18.292;2023-03-25T06:56:36;7.40;99.90
37844;DHT22;63793;57.632;18.292;2023-03-25T06:59:03;7.40;99.90
37844;DHT22;63793;57.632;18.292;2023-03-25T07:01:31;7.50;99.90
37844;DHT22;63793;57.632;18.292;2023-03-25T07:03:58;7.50;99.90
37844;DHT22;63793;57.632;18.292;2023-03-25T07:06:25;7.60;99.90
37844;DHT22;63793;57.632;18.292;2023-03-25T07:08:52;7.60;99.90
37844;DHT22;63793;57.632;18.292;2023-03-25T07:11:27;7.70;99.90
37844;DHT22;63793;57.632;18.292;2023-03-25T07:13:55;7.70;99.90
37844;DHT22;63793;57.632;18.292;2023-03-25T07:16:23;7.80;99.90
37844;DHT22;63793;57.632;18.292;2023-03-25T07:18:51;7.80;99.90
37844;DHT22;63793;57.632;18.292;2023-03-25T07:21:20;7.90;99.90
37844;DHT22;63793;57.632;18.292;2023-03-25T07:23:47;7.90;99.90
37844;DHT22;63793;57.632;18.292;2023-03-25T07:26:14;7.90;99.90
37844;DHT22;63793;57.632;18.292;2023-03-25T07:28:41;7.90;99.90
37844;DHT22;63793;57.632;18.292;2023-03-25T07:31:10;8.00;99.90
37844;DHT22;63793;57.632;18.292;2023-03-25T07:33:37;8.00;99.90
37844;DHT22;63793;57.632;18.292;2023-03-25T07:36:05;8.00;99.90
37844;DHT22;63793;57.632;18.292;2023-03-25T07:38:33;8.10;99.90
37844;DHT22;63793;57.632;18.292;2023-03-25T07:41:04;8.10;99.90
37844;DHT22;63793;57.632;18.292;2023-03-25T07:43:31;8.00;99.90
37844;DHT22;63793;57.632;18.292;2023-03-25T07:46:21;8.00;99.90
37844;DHT22;63793;57.632;18.292;2023-03-25T07:48:48;8.10;99.90
37844;DHT22;63793;57.632;18.292;2023-03-25T07:51:14;8.10;99.90
37844;DHT22;63793;57.632;18.292;2023-03-25T07:53:41;8.10;99.90
37844;DHT22;63793;57.632;18.292;2023-03-25T07:56:11;8.00;99.90
37844;DHT22;63793;57.632;18.292;2023-03-25T07:58:38;8.10;99.90
37844;DHT22;63793;57.632;18.292;2023-03-25T08:01:05;8.10;99.90
37844;DHT22;63793;57.632;18.292;2023-03-25T08:03:32;8.20;99.90
37844;DHT22;63793;57.632;18.292;2023-03-25T08:06:01;8.40;99.90
37844;DHT22;63793;57.632;18.292;2023-03-25T08:08:28;8.60;99.90
37844;DHT22;63793;57.632;18.292;2023-03-25T08:10:58;8.70;99.90
37844;DHT22;63793;57.632;18.292;2023-03-25T08:13:25;8.70;99.90
37844;DHT22;63793;57.632;18.292;2023-03-25T08:15:52;8.70;99.90
37844;DHT22;63793;57.632;18.292;2023-03-25T08:18:19;8.80;99.90
37844;DHT22;63793;57.632;18.292;2023-03-25T08:20:48;8.90;99.90
37844;DHT22;63793;57.632;18.292;2023-03-25T08:23:17;9.10;99.90
37844;DHT22;63793;57.632;18.292;2023-03-25T08:25:49;9.20;99.90
37844;DHT22;63793;57.632;18.292;2023-03-25T08:28:18;9.30;99.90
37844;DHT22;63793;57.632;18.292;2023-03-25T08:30:50;9.40;99.90
37844;DHT22;63793;57.632;18.292;2023-03-25T08:33:22;9.60;99.90
37844;DHT22;63793;57.632;18.292;2023-03-25T08:35:56;9.80;99.90
37844;DHT22;63793;57.632;18.292;2023-03-25T08:38:23;9.90;99.90
37844;DHT22;63793;57.632;18.292;2023-03-25T08:40:51;10.10;99.90
37844;DHT22;63793;57.632;18.292;2023-03-25T08:43:18;10.10;99.90
37844;DHT22;63793;57.632;18.292;2023-03-25T08:45:45;10.00;99.90
37844;DHT22;63793;57.632;18.292;2023-03-25T08:48:12;9.90;99.90
37844;DHT22;63793;57.632;18.292;2023-03-25T08:50:39;10.00;99.90
37844;DHT22;63793;57.632;18.292;2023-03-25T08:53:06;10.10;99.90
37844;DHT22;63793;57.632;18.292;2023-03-25T08:55:33;10.10;99.90
37844;DHT22;63793;57.632;18.292;2023-03-25T08:58:03;10.10;99.90
37844;DHT22;63793;57.632;18.292;2023-03-25T09:00:31;10.20;99.90
37844;DHT22;63793;57.632;18.292;2023-03-25T09:02:58;10.20;99.90
37844;DHT22;63793;57.632;18.292;2023-03-25T09:05:26;10.00;99.90
37844;DHT22;63793;57.632;18.292;2023-03-25T09:07:53;9.90;99.90
37844;DHT22;63793;57.632;18.292;2023-03-25T09:10:20;9.90;99.90
37844;DHT22;63793;57.632;18.292;2023-03-25T09:12:47;9.80;99.90
37844;DHT22;63793;57.632;18.292;2023-03-25T09:15:14;9.80;99.90
37844;DHT22;63793;57.632;18.292;2023-03-25T09:17:41;9.80;99.90
37844;DHT22;63793;57.632;18.292;2023-03-25T09:20:08;9.90;99.90
37844;DHT22;63793;57.632;18.292;2023-03-25T09:22:38;9.90;99.90
37844;DHT22;63793;57.632;18.292;2023-03-25T09:25:05;10.00;99.90
37844;DHT22;63793;57.632;18.292;2023-03-25T09:27:33;10.10;99.90
37844;DHT22;63793;57.632;18.292;2023-03-25T09:30:00;10.20;99.90
37844;DHT22;63793;57.632;18.292;2023-03-25T09:32:27;10.30;99.90
37844;DHT22;63793;57.632;18.292;2023-03-25T09:34:54;10.40;99.90
37844;DHT22;63793;57.632;18.292;2023-03-25T09:37:21;10.30;99.90
37844;DHT22;63793;57.632;18.292;2023-03-25T09:39:48;10.40;99.90
37844;DHT22;63793;57.632;18.292;2023-03-25T09:45:33;10.20;99.90
37844;DHT22;63793;57.632;18.292;2023-03-25T09:50:48;10.10;99.90
37844;DHT22;63793;57.632;18.292;2023-03-25T09:55:54;9.90;99.90
37844;DHT22;63793;57.632;18.292;2023-03-25T09:58:44;9.90;99.90
37844;DHT22;63793;57.632;18.292;2023-03-25T10:12:54;9.90;99.90
37844;DHT22;63793;57.632;18.292;2023-03-25T10:15:37;10.00;99.90
37844;DHT22;63793;57.632;18.292;2023-03-25T10:20:51;10.10;99.90
37844;DHT22;63793;57.632;18.292;2023-03-25T10:23:32;10.20;99.90
37844;DHT22;63793;57.632;18.292;2023-03-25T10:26:49;10.30;99.90
37844;DHT22;63793;57.632;18.292;2023-03-25T10:28:55;10.50;99.90
37844;DHT22;63793;57.632;18.292;2023-03-25T10:31:25;10.60;99.90
37844;DHT22;63793;57.632;18.292;2023-03-25T10:33:56;10.80;99.90
37844;DHT22;63793;57.632;18.292;2023-03-25T10:36:33;10.60;99.90
37844;DHT22;63793;57.632;18.292;2023-03-25T10:39:00;10.50;99.90
37844;DHT22;63793;57.632;18.292;2023-03-25T10:41:34;10.40;99.90
37844;DHT22;63793;57.632;18.292;2023-03-25T10:44:09;10.30;99.90
37844;DHT22;63793;57.632;18.292;2023-03-25T10:46:51;10.30;99.90
37844;DHT22;63793;57.632;18.292;2023-03-25T10:49:21;10.30;99.90
37844;DHT22;63793;57.632;18.292;2023-03-25T10:51:51;10.30;99.90
37844;DHT22;63793;57.632;18.292;2023-03-25T10:54:26;10.20;99.90
37844;DHT22;63793;57.632;18.292;2023-03-25T10:56:56;10.20;99.90
37844;DHT22;63793;57.632;18.292;2023-03-25T10:59:40;10.20;99.90
37844;DHT22;63793;57.632;18.292;2023-03-25T11:02:17;10.10;99.90
37844;DHT22;63793;57.632;18.292;2023-03-25T11:04:47;10.00;99.90
37844;DHT22;63793;57.632;18.292;2023-03-25T11:07:24;10.10;99.90
37844;DHT22;63793;57.632;18.292;2023-03-25T11:09:52;10.00;99.90
37844;DHT22;63793;57.632;18.292;2023-03-25T11:12:21;9.80;99.90
37844;DHT22;63793;57.632;18.292;2023-03-25T11:15:16;10.00;99.90
37844;DHT22;63793;57.632;18.292;2023-03-25T11:17:45;10.20;99.90
37844;DHT22;63793;57.632;18.292;2023-03-25T11:20:19;10.40;99.90
37844;DHT22;63793;57.632;18.292;2023-03-25T11:22:50;10.50;99.90
37844;DHT22;63793;57.632;18.292;2023-03-25T11:25:23;10.50;99.90
37844;DHT22;63793;57.632;18.292;2023-03-25T11:28:36;10.60;99.90
37844;DHT22;63793;57.632;18.292;2023-03-25T11:31:18;10.70;99.90
37844;DHT22;63793;57.632;18.292;2023-03-25T11:41:49;10.40;99.90
37844;DHT22;63793;57.632;18.292;2023-03-25T11:44:37;10.30;99.90
37844;DHT22;63793;57.632;18.292;2023-03-25T11:47:07;10.20;99.90
37844;DHT22;63793;57.632;18.292;2023-03-25T11:49:37;10.10;99.90
37844;DHT22;63793;57.632;18.292;2023-03-25T11:52:14;10.10;99.90
37844;DHT22;63793;57.632;18.292;2023-03-25T11:54:43;9.80;99.90
37844;DHT22;63793;57.632;18.292;2023-03-25T11:57:19;9.70;99.90
37844;DHT22;63793;57.632;18.292;2023-03-25T11:59:49;9.60;99.90
37844;DHT22;63793;57.632;18.292;2023-03-25T12:02:28;9.50;99.90
37844;DHT22;63793;57.632;18.292;2023-03-25T12:05:01;9.50;99.90
37844;DHT22;63793;57.632;18.292;2023-03-25T12:07:29;9.70;99.90
37844;DHT22;63793;57.632;18.292;2023-03-25T12:10:11;9.60;99.90
37844;DHT22;63793;57.632;18.292;2023-03-25T12:24:05;9.80;99.90
37844;DHT22;63793;57.632;18.292;2023-03-25T12:26:59;9.90;99.90
37844;DHT22;63793;57.632;18.292;2023-03-25T12:29:39;10.10;99.90
37844;DHT22;63793;57.632;18.292;2023-03-25T12:38:22;10.30;99.90
37844;DHT22;63793;57.632;18.292;2023-03-25T12:57:56;10.10;99.90
37844;DHT22;63793;57.632;18.292;2023-03-25T13:00:56;10.30;99.90
37844;DHT22;63793;57.632;18.292;2023-03-25T13:03:41;10.50;99.90
37844;DHT22;63793;57.632;18.292;2023-03-25T13:12:10;10.80;99.90
37844;DHT22;63793;57.632;18.292;2023-03-25T13:14:43;10.70;99.90
37844;DHT22;63793;57.632;18.292;2023-03-25T13:17:25;10.70;99.90
37844;DHT22;63793;57.632;18.292;2023-03-25T13:19:59;10.80;99.90
37844;DHT22;63793;57.632;18.292;2023-03-25T13:22:33;11.00;99.90
37844;DHT22;63793;57.632;18.292;2023-03-25T13:25:03;11.10;99.90
37844;DHT22;63793;57.632;18.292;2023-03-25T13:27:38;10.90;99.90
37844;DHT22;63793;57.632;18.292;2023-03-25T13:30:16;11.00;99.90
37844;DHT22;63793;57.632;18.292;2023-03-25T13:32:48;10.90;99.90
37844;DHT22;63793;57.632;18.292;2023-03-25T13:35:33;11.00;99.90
37844;DHT22;63793;57.632;18.292;2023-03-25T13:38:12;11.00;99.90
37844;DHT22;63793;57.632;18.292;2023-03-25T13:43:23;11.00;99.90
37844;DHT22;63793;57.632;18.292;2023-03-25T13:49:05;10.90;99.90
37844;DHT22;63793;57.632;18.292;2023-03-25T13:51:33;10.90;99.90
37844;DHT22;63793;57.632;18.292;2023-03-25T13:57:02;10.80;99.90
37844;DHT22;63793;57.632;18.292;2023-03-25T13:59:54;11.00;99.90
37844;DHT22;63793;57.632;18.292;2023-03-25T14:13:01;11.00;99.90
37844;DHT22;63793;57.632;18.292;2023-03-25T14:15:39;10.80;99.90
37844;DHT22;63793;57.632;18.292;2023-03-25T14:18:16;10.80;99.90
37844;DHT22;63793;57.632;18.292;2023-03-25T14:20:44;10.70;99.90
37844;DHT22;63793;57.632;18.292;2023-03-25T14:23:15;10.70;99.90
37844;DHT22;63793;57.632;18.292;2023-03-25T14:25:53;10.70;99.90
37844;DHT22;63793;57.632;18.292;2023-03-25T14:28:37;10.90;99.90
37844;DHT22;63793;57.632;18.292;2023-03-25T14:44:35;10.10;99.90
37844;DHT22;63793;57.632;18.292;2023-03-25T14:52:42;10.60;99.90
37844;DHT22;63793;57.632;18.292;2023-03-25T14:55:14;10.60;99.90
37844;DHT22;63793;57.632;18.292;2023-03-25T14:57:43;10.60;99.90
37844;DHT22;63793;57.632;18.292;2023-03-25T15:00:20;10.60;99.90
37844;DHT22;63793;57.632;18.292;2023-03-25T15:03:13;10.80;99.90
37844;DHT22;63793;57.632;18.292;2023-03-25T15:05:43;10.90;99.90
37844;DHT22;63793;57.632;18.292;2023-03-25T15:08:24;11.10;99.90
37844;DHT22;63793;57.632;18.292;2023-03-25T15:13:39;11.30;99.90
37844;DHT22;63793;57.632;18.292;2023-03-25T15:21:22;11.30;99.90
37844;DHT22;63793;57.632;18.292;2023-03-25T15:24:03;11.30;99.90
37844;DHT22;63793;57.632;18.292;2023-03-25T15:40:33;9.80;99.90
37844;DHT22;63793;57.632;18.292;2023-03-25T15:49:15;9.60;99.90
37844;DHT22;63793;57.632;18.292;2023-03-25T15:52:24;9.60;99.90
37844;DHT22;63793;57.632;18.292;2023-03-25T15:54:59;9.30;99.90
37844;DHT22;63793;57.632;18.292;2023-03-25T15:57:41;9.30;99.90
37844;DHT22;63793;57.632;18.292;2023-03-25T16:00:22;9.30;99.90
37844;DHT22;63793;57.632;18.292;2023-03-25T16:02:59;9.20;99.90
37844;DHT22;63793;57.632;18.292;2023-03-25T16:05:37;9.10;99.90
37844;DHT22;63793;57.632;18.292;2023-03-25T16:08:12;9.00;99.90
37844;DHT22;63793;57.632;18.292;2023-03-25T16:10:41;8.90;99.90
37844;DHT22;63793;57.632;18.292;2023-03-25T16:13:13;8.90;99.90
37844;DHT22;63793;57.632;18.292;2023-03-25T16:15:43;8.80;99.90
37844;DHT22;63793;57.632;18.292;2023-03-25T16:18:13;8.80;99.90
37844;DHT22;63793;57.632;18.292;2023-03-25T16:20:41;8.70;99.90
37844;DHT22;63793;57.632;18.292;2023-03-25T16:23:18;8.50;99.90
37844;DHT22;63793;57.632;18.292;2023-03-25T16:25:47;8.50;99.90
37844;DHT22;63793;57.632;18.292;2023-03-25T16:28:38;8.40;99.90
37844;DHT22;63793;57.632;18.292;2023-03-25T16:31:03;8.30;99.90
37844;DHT22;63793;57.632;18.292;2023-03-25T16:33:36;8.20;99.90
37844;DHT22;63793;57.632;18.292;2023-03-25T16:36:08;8.10;99.90
37844;DHT22;63793;57.632;18.292;2023-03-25T16:38:38;8.00;99.90
37844;DHT22;63793;57.632;18.292;2023-03-25T16:41:13;7.90;99.90
37844;DHT22;63793;57.632;18.292;2023-03-25T16:43:41;7.80;99.90
37844;DHT22;63793;57.632;18.292;2023-03-25T16:46:10;7.70;99.90
37844;DHT22;63793;57.632;18.292;2023-03-25T16:48:46;7.60;99.90
37844;DHT22;63793;57.632;18.292;2023-03-25T16:51:20;7.50;99.90
37844;DHT22;63793;57.632;18.292;2023-03-25T16:53:50;7.40;99.90
37844;DHT22;63793;57.632;18.292;2023-03-25T16:56:22;7.30;99.90
37844;DHT22;63793;57.632;18.292;2023-03-25T16:58:57;7.20;99.90
37844;DHT22;63793;57.632;18.292;2023-03-25T17:01:25;7.20;99.90
37844;DHT22;63793;57.632;18.292;2023-03-25T17:04:23;7.10;99.90
37844;DHT22;63793;57.632;18.292;2023-03-25T17:07:02;7.00;99.90
37844;DHT22;63793;57.632;18.292;2023-03-25T17:09:35;7.00;99.90
37844;DHT22;63793;57.632;18.292;2023-03-25T17:12:07;7.00;99.90
37844;DHT22;63793;57.632;18.292;2023-03-25T17:14:41;6.90;99.90
37844;DHT22;63793;57.632;18.292;2023-03-25T17:17:26;6.90;99.90
37844;DHT22;63793;57.632;18.292;2023-03-25T17:20:01;6.80;99.90
37844;DHT22;63793;57.632;18.292;2023-03-25T17:22:33;6.80;99.90
37844;DHT22;63793;57.632;18.292;2023-03-25T17:25:24;6.80;99.90
37844;DHT22;63793;57.632;18.292;2023-03-25T17:27:55;6.70;99.90
37844;DHT22;63793;57.632;18.292;2023-03-25T17:33:10;6.60;99.90
37844;DHT22;63793;57.632;18.292;2023-03-25T17:35:37;6.60;99.90
37844;DHT22;63793;57.632;18.292;2023-03-25T17:38:05;6.60;99.90
37844;DHT22;63793;57.632;18.292;2023-03-25T17:40:34;6.60;99.90
37844;DHT22;63793;57.632;18.292;2023-03-25T17:43:01;6.50;99.90
37844;DHT22;63793;57.632;18.292;2023-03-25T17:45:28;6.50;99.90
37844;DHT22;63793;57.632;18.292;2023-03-25T17:47:55;6.50;99.90
37844;DHT22;63793;57.632;18.292;2023-03-25T17:50:24;6.50;99.90
37844;DHT22;63793;57.632;18.292;2023-03-25T17:52:53;6.50;99.90
37844;DHT22;63793;57.632;18.292;2023-03-25T17:55:20;6.50;99.90
37844;DHT22;63793;57.632;18.292;2023-03-25T17:58:07;6.50;99.90
37844;DHT22;63793;57.632;18.292;2023-03-25T18:00:34;6.50;99.90
37844;DHT22;63793;57.632;18.292;2023-03-25T18:03:11;6.50;99.90
37844;DHT22;63793;57.632;18.292;2023-03-25T18:05:38;6.50;99.90
37844;DHT22;63793;57.632;18.292;2023-03-25T18:08:05;6.50;99.90
37844;DHT22;63793;57.632;18.292;2023-03-25T18:10:33;6.50;99.90
37844;DHT22;63793;57.632;18.292;2023-03-25T18:13:00;6.50;99.90
37844;DHT22;63793;57.632;18.292;2023-03-25T18:15:28;6.50;99.90
37844;DHT22;63793;57.632;18.292;2023-03-25T18:17:55;6.50;99.90
37844;DHT22;63793;57.632;18.292;2023-03-25T18:20:27;6.50;99.90
37844;DHT22;63793;57.632;18.292;2023-03-25T18:22:54;6.50;99.90
37844;DHT22;63793;57.632;18.292;2023-03-25T18:25:22;6.50;99.90
37844;DHT22;63793;57.632;18.292;2023-03-25T18:27:54;6.50;99.90
37844;DHT22;63793;57.632;18.292;2023-03-25T18:30:30;6.50;99.90
37844;DHT22;63793;57.632;18.292;2023-03-25T18:33:00;6.50;99.90
37844;DHT22;63793;57.632;18.292;2023-03-25T18:35:27;6.50;99.90
37844;DHT22;63793;57.632;18.292;2023-03-25T18:37:54;6.50;99.90
37844;DHT22;63793;57.632;18.292;2023-03-25T18:40:23;6.50;99.90
37844;DHT22;63793;57.632;18.292;2023-03-25T18:42:51;6.50;99.90
37844;DHT22;63793;57.632;18.292;2023-03-25T18:45:19;6.50;99.90
37844;DHT22;63793;57.632;18.292;2023-03-25T18:47:48;6.50;99.90
37844;DHT22;63793;57.632;18.292;2023-03-25T18:50:30;6.50;99.90
37844;DHT22;63793;57.632;18.292;2023-03-25T18:52:58;6.50;99.90